Time;durP1;ratioP1;P1;durP2;ratioP2;P2;SDS_P1;SDS_P2;PMS_P1;PMS_P2;Temp;Humidity;BMP_temperature;BMP_pressure;BME280_temperature;BME280_humidity;BME280_pressure;Samples;Min_cycle;Max_cycle;Signal;HPM_P1;HPM_P2
2023/04/18 00:01:57;;;;;;;16.17;12.85;;;;;;;13.43;67.73;99098.22;5071819;28;20035;-77
2023/04/18 00:04:24;;;;;;;13.00;11.30;;;;;;;13.10;67.66;99061.94;5071669;28;20021;-78
2023/04/18 00:06:50;;;;;;;15.27;12.48;;;;;;;13.14;67.23;99049.88;5071396;28;20519;-76
2023/04/18 00:09:15;;;;;;;14.70;13.07;;;;;;;13.28;67.29;99074.56;5071385;28;20024;-78
2023/04/18 00:11:41;;;;;;;15.07;11.95;;;;;;;13.56;67.36;99112.28;5070311;28;20021;-77
2023/04/18 00:14:07;;;;;;;13.60;12.20;;;;;;;13.20;67.40;99051.75;5071486;28;20013;-77
2023/04/18 00:16:32;;;;;;;15.70;12.45;;;;;;;13.63;67.36;99106.97;5071502;28;20028;-77
2023/04/18 00:18:58;;;;;;;13.32;11.32;;;;;;;13.67;67.25;99116.13;5070047;28;20029;-77
2023/04/18 00:21:24;;;;;;;14.55;12.15;;;;;;;13.54;67.37;99109.03;5071572;28;20031;-78
2023/04/18 00:23:50;;;;;;;13.35;11.75;;;;;;;13.17;67.26;99048.69;5071516;28;20043;-78
2023/04/18 00:26:15;;;;;;;13.52;11.32;;;;;;;13.17;67.28;99061.94;5071240;28;20115;-78
2023/04/18 00:28:41;;;;;;;14.52;11.60;;;;;;;13.08;67.58;99063.16;5071382;28;20017;-78
2023/04/18 00:31:06;;;;;;;16.25;11.57;;;;;;;13.61;67.58;99127.56;5071350;28;20029;-77
2023/04/18 00:33:33;;;;;;;15.35;11.93;;;;;;;13.35;67.35;99093.94;5071372;28;20020;-77
2023/04/18 00:35:58;;;;;;;16.55;12.65;;;;;;;13.11;67.41;99050.31;5071100;28;20029;-76
2023/04/18 00:38:24;;;;;;;15.48;13.00;;;;;;;13.59;67.75;99122.47;5069843;28;20066;-78
2023/04/18 00:40:49;;;;;;;20.90;14.48;;;;;;;13.04;67.64;99046.84;5073978;28;20078;-76
2023/04/18 00:43:15;;;;;;;15.85;13.38;;;;;;;13.63;67.65;99118.38;5076504;28;20024;-77
2023/04/18 00:45:41;;;;;;;18.02;12.93;;;;;;;13.21;67.66;99056.03;5077778;28;20444;-77
2023/04/18 00:48:07;;;;;;;14.90;12.55;;;;;;;13.13;67.65;99029.72;5077774;28;20077;-77
2023/04/18 00:50:35;;;;;;;17.33;12.13;;;;;;;13.34;67.65;99065.78;5077922;28;20020;-78
2023/04/18 00:53:01;;;;;;;16.17;10.45;;;;;;;13.21;67.78;99045.44;5077783;28;20043;-77
2023/04/18 00:55:28;;;;;;;19.55;12.57;;;;;;;13.14;67.96;99034.00;5077706;28;20021;-77
2023/04/18 00:57:53;;;;;;;15.18;11.98;;;;;;;13.61;67.93;99104.50;5077811;28;20078;-77
2023/04/18 01:00:19;;;;;;;13.02;11.63;;;;;;;13.15;67.88;99019.72;5077749;28;20024;-77
2023/04/18 01:02:45;;;;;;;15.07;11.75;;;;;;;13.65;67.41;99099.59;5077721;28;20024;-78
2023/04/18 01:05:11;;;;;;;14.20;11.45;;;;;;;13.26;67.81;99034.19;5078013;28;20020;-77
2023/04/18 01:07:40;;;;;;;14.32;11.15;;;;;;;13.47;67.74;99065.78;5077695;28;20028;-77
2023/04/18 01:10:07;;;;;;;15.98;11.93;;;;;;;13.45;67.78;99085.59;5077623;28;20063;-78
2023/04/18 01:12:32;;;;;;;12.73;11.35;;;;;;;13.19;68.06;99028.09;5077400;28;20413;-77
2023/04/18 01:14:59;;;;;;;13.98;11.82;;;;;;;13.11;67.91;99022.97;5077504;28;20024;-77
2023/04/18 01:17:27;;;;;;;15.90;12.07;;;;;;;13.60;67.75;99084.31;5076124;28;20493;-78
2023/04/18 01:19:52;;;;;;;14.10;12.02;;;;;;;13.04;67.64;99012.41;5077617;28;20047;-77
2023/04/18 01:22:18;;;;;;;13.80;11.63;;;;;;;13.61;67.96;99109.00;5077648;28;20489;-77
2023/04/18 01:24:44;;;;;;;12.60;10.35;;;;;;;13.60;68.04;99102.88;5077557;28;20032;-77
2023/04/18 01:27:13;;;;;;;16.92;11.35;;;;;;;13.63;68.26;99109.63;5077287;28;20037;-77
2023/04/18 01:29:38;;;;;;;14.30;11.02;;;;;;;13.04;67.92;99026.47;5077436;28;20032;-77
2023/04/18 01:32:04;;;;;;;15.70;12.15;;;;;;;13.58;67.96;99102.28;5077487;28;20413;-77
2023/04/18 01:34:30;;;;;;;16.08;11.18;;;;;;;13.18;67.73;99045.84;5077470;28;20048;-77
2023/04/18 01:36:55;;;;;;;18.35;11.88;;;;;;;13.21;68.37;99048.06;5075988;28;20113;-77
2023/04/18 01:39:21;;;;;;;14.88;12.20;;;;;;;13.09;67.94;99028.50;5077270;28;20019;-78
2023/04/18 01:41:46;;;;;;;14.98;11.43;;;;;;;13.28;67.90;99048.88;5077363;28;20544;-77
2023/04/18 01:44:12;;;;;;;14.05;10.73;;;;;;;13.60;67.85;99092.28;5077353;28;20017;-77
2023/04/18 01:46:38;;;;;;;14.80;11.27;;;;;;;13.67;67.87;99108.16;5076080;28;20020;-77
2023/04/18 01:49:05;;;;;;;12.98;10.35;;;;;;;13.52;67.93;99100.47;5077313;28;20021;-78
2023/04/18 01:51:30;;;;;;;12.30;10.15;;;;;;;13.57;68.20;99113.91;5076399;28;20032;-77
2023/04/18 01:53:56;;;;;;;10.73;9.63;;;;;;;13.15;68.28;99054.16;5071738;28;20020;-77
2023/04/18 01:56:21;;;;;;;13.20;9.57;;;;;;;13.33;68.15;99064.97;5074134;28;20528;-79
2023/04/18 01:58:47;;;;;;;12.10;10.02;;;;;;;13.22;68.10;99052.34;5074032;28;20490;-77
2023/04/18 02:01:12;;;;;;;11.30;9.73;;;;;;;13.66;67.89;99111.84;5073846;28;20056;-78
2023/04/18 02:03:38;;;;;;;13.98;10.77;;;;;;;13.51;67.86;99087.41;5073894;28;20099;-77
2023/04/18 02:06:04;;;;;;;13.48;11.20;;;;;;;13.71;67.64;99114.69;5074065;28;20028;-78
2023/04/18 02:08:31;;;;;;;11.70;10.07;;;;;;;13.70;67.63;99120.22;5073053;28;20024;-77
2023/04/18 02:10:57;;;;;;;13.15;11.75;;;;;;;13.63;67.85;99117.56;5073914;28;20501;-77
2023/04/18 02:13:23;;;;;;;14.45;11.13;;;;;;;12.95;67.81;99029.53;5073510;28;20078;-78
2023/04/18 02:15:48;;;;;;;11.32;9.55;;;;;;;13.34;68.08;99085.16;5073559;28;20066;-77
2023/04/18 02:18:14;;;;;;;13.48;10.32;;;;;;;13.37;68.01;99086.59;5073388;28;20024;-77
2023/04/18 02:20:40;;;;;;;12.82;10.63;;;;;;;13.11;67.83;99049.50;5073507;28;20012;-78
2023/04/18 02:23:05;;;;;;;10.95;9.82;;;;;;;13.32;67.93;99073.13;5072160;28;20448;-78
2023/04/18 02:25:31;;;;;;;14.95;10.02;;;;;;;13.14;67.92;99046.44;5073458;28;20045;-76
2023/04/18 02:27:57;;;;;;;13.07;10.40;;;;;;;12.71;67.62;98975.34;5073498;28;20021;-77
2023/04/18 02:30:23;;;;;;;13.77;10.32;;;;;;;13.74;67.46;99121.41;5073410;28;20025;-78
2023/04/18 02:32:50;;;;;;;11.23;9.93;;;;;;;13.23;67.59;99067.25;5073394;28;20017;-77
2023/04/18 02:35:16;;;;;;;12.63;10.50;;;;;;;13.47;67.55;99075.59;5071986;28;20024;-77
2023/04/18 02:37:42;;;;;;;14.02;11.32;;;;;;;13.47;67.47;99079.03;5073505;28;20036;-77
2023/04/18 02:40:08;;;;;;;14.20;12.43;;;;;;;13.14;67.63;99027.88;5073298;28;20099;-77
2023/04/18 02:42:33;;;;;;;15.52;11.80;;;;;;;13.73;67.69;99125.91;5071660;28;20429;-77
2023/04/18 02:44:59;;;;;;;13.32;11.25;;;;;;;13.22;67.75;99060.31;5073008;28;20032;-77
2023/04/18 02:47:24;;;;;;;12.75;11.35;;;;;;;13.44;67.92;99081.31;5072933;28;20012;-78
2023/04/18 02:49:49;;;;;;;13.27;10.90;;;;;;;13.70;67.80;99130.81;5072934;28;20074;-77
2023/04/18 02:52:15;;;;;;;13.32;8.75;;;;;;;13.60;67.33;99117.97;5071619;28;20028;-78
2023/04/18 02:54:40;;;;;;;11.30;8.07;;;;;;;13.49;67.79;99100.88;5073000;28;20031;-77
2023/04/18 02:57:06;;;;;;;8.85;7.95;;;;;;;13.31;67.66;99067.03;5072761;28;20027;-78
2023/04/18 02:59:31;;;;;;;9.07;7.82;;;;;;;13.30;67.40;99102.50;5072745;28;20051;-77
2023/04/18 03:01:57;;;;;;;9.25;7.97;;;;;;;13.57;67.38;99119.22;5072857;28;20073;-77
2023/04/18 03:04:22;;;;;;;10.45;7.88;;;;;;;13.12;67.52;99035.22;5072510;28;20028;-77
2023/04/18 03:06:48;;;;;;;11.65;8.20;;;;;;;13.51;67.50;99106.78;5073061;28;20043;-77
2023/04/18 03:09:15;;;;;;;9.32;6.85;;;;;;;13.62;67.67;99118.59;5072741;28;20047;-78
2023/04/18 03:11:41;;;;;;;12.90;9.07;;;;;;;13.34;67.98;99129.44;5072700;28;20028;-77
2023/04/18 03:14:06;;;;;;;10.55;8.82;;;;;;;13.24;67.66;99082.13;5072625;28;20025;-77
2023/04/18 03:16:32;;;;;;;14.40;10.65;;;;;;;13.58;67.59;99130.63;5072376;28;20021;-77
2023/04/18 03:18:58;;;;;;;12.50;11.13;;;;;;;13.55;67.72;99125.75;5071084;28;20020;-77
2023/04/18 03:21:23;;;;;;;15.73;14.13;;;;;;;13.44;67.76;99126.38;5072538;28;20054;-77
2023/04/18 03:23:49;;;;;;;23.15;16.65;;;;;;;13.18;67.71;99071.53;5072411;28;20095;-77
2023/04/18 03:26:14;;;;;;;20.20;16.40;;;;;;;13.19;67.66;99084.56;5072127;28;20078;-78
2023/04/18 03:28:40;;;;;;;21.85;19.35;;;;;;;13.58;67.54;99144.72;5072088;28;20481;-77
2023/04/18 03:31:05;;;;;;;24.77;19.63;;;;;;;13.19;67.80;99068.69;5072258;28;20020;-78
2023/04/18 03:33:31;;;;;;;21.73;19.00;;;;;;;12.94;67.77;99059.69;5072143;28;20052;-76
2023/04/18 03:35:56;;;;;;;27.75;21.80;;;;;;;13.33;67.88;99118.00;5072112;28;20025;-76
2023/04/18 03:38:22;;;;;;;27.95;20.85;;;;;;;13.02;68.01;99081.50;5072012;28;20082;-77
2023/04/18 03:40:47;;;;;;;31.33;23.25;;;;;;;13.27;68.06;99110.88;5072239;28;20032;-77
2023/04/18 03:43:13;;;;;;;36.33;26.85;;;;;;;13.46;68.05;99135.75;5072003;28;20016;-77
2023/04/18 03:45:38;;;;;;;49.67;31.83;;;;;;;13.03;67.99;99075.19;5071847;28;20035;-77
2023/04/18 03:48:05;;;;;;;53.95;35.67;;;;;;;13.10;67.75;99091.09;5071793;28;20035;-78
2023/04/18 03:50:30;;;;;;;73.05;40.50;;;;;;;13.11;67.94;99086.59;5072193;28;20455;-76
2023/04/18 03:52:55;;;;;;;91.45;49.28;;;;;;;13.45;67.78;99144.75;5071735;28;20021;-77
2023/04/18 03:55:21;;;;;;;126.30;62.55;;;;;;;13.11;67.76;99099.84;5071913;28;20024;-77
2023/04/18 03:57:47;;;;;;;138.63;63.38;;;;;;;13.43;67.80;99148.63;5071865;28;20093;-77
2023/04/18 04:00:13;;;;;;;141.65;66.18;;;;;;;13.33;67.99;99144.53;5071873;28;20481;-78
2023/04/18 04:02:39;;;;;;;158.00;73.03;;;;;;;13.36;68.24;99153.91;5071556;28;20077;-77
2023/04/18 04:05:04;;;;;;;160.98;72.68;;;;;;;13.38;68.23;99156.34;5071760;28;20032;-77
2023/04/18 04:07:31;;;;;;;200.15;82.18;;;;;;;13.39;68.15;99160.66;5071564;28;20447;-77
2023/04/18 04:09:57;;;;;;;180.00;76.88;;;;;;;12.78;68.01;99071.53;5071576;28;20085;-77
2023/04/18 04:12:24;;;;;;;192.10;81.20;;;;;;;13.35;68.20;99158.38;5071703;28;20066;-78
2023/04/18 04:14:49;;;;;;;177.63;73.40;;;;;;;13.27;68.17;99144.53;5071250;28;20515;-78
2023/04/18 04:17:15;;;;;;;168.55;67.85;;;;;;;13.31;68.02;99154.50;5071318;28;20020;-78
2023/04/18 04:19:40;;;;;;;168.50;68.88;;;;;;;12.90;68.19;99088.44;5071820;28;20017;-77
2023/04/18 04:22:06;;;;;;;138.93;58.70;;;;;;;12.91;67.82;99098.03;5071265;28;20103;-77
2023/04/18 04:24:32;;;;;;;141.98;58.60;;;;;;;13.47;67.98;99179.81;5071281;28;20031;-78
2023/04/18 04:26:59;;;;;;;128.05;52.85;;;;;;;13.04;67.76;99113.09;5071282;28;20124;-76
2023/04/18 04:29:25;;;;;;;129.93;54.25;;;;;;;13.10;67.84;99124.72;5071328;28;20020;-77
2023/04/18 04:31:51;;;;;;;132.90;57.13;;;;;;;13.11;67.88;99118.41;5071244;28;20059;-77
2023/04/18 04:34:16;;;;;;;126.07;51.30;;;;;;;13.48;67.82;99180.66;5071151;28;20102;-78
2023/04/18 04:36:42;;;;;;;102.22;45.38;;;;;;;13.37;67.78;99174.09;5071227;28;20024;-77
2023/04/18 04:39:08;;;;;;;74.10;35.92;;;;;;;13.03;68.12;99111.47;5071318;28;20025;-77
2023/04/18 04:41:36;;;;;;;69.97;34.35;;;;;;;13.00;67.64;99104.75;5071064;28;20032;-78
2023/04/18 04:44:03;;;;;;;57.30;32.97;;;;;;;13.51;67.95;99183.69;5070983;28;20374;-77
2023/04/18 04:46:29;;;;;;;54.42;31.90;;;;;;;13.49;67.76;99182.28;5071236;28;20494;-77
2023/04/18 04:48:54;;;;;;;56.78;32.67;;;;;;;12.55;67.98;99056.00;5071233;28;20485;-78
2023/04/18 04:51:20;;;;;;;66.13;36.58;;;;;;;13.20;68.05;99160.44;5071073;28;20074;-77
2023/04/18 04:53:45;;;;;;;66.32;36.38;;;;;;;13.27;68.21;99171.84;5069455;28;20020;-78
2023/04/18 04:56:11;;;;;;;70.03;37.92;;;;;;;13.00;68.19;99135.72;5070843;28;20078;-77
2023/04/18 04:58:36;;;;;;;73.93;40.33;;;;;;;13.04;68.21;99151.03;5070896;28;20527;-77
2023/04/18 05:01:02;;;;;;;77.45;40.63;;;;;;;13.04;68.43;99144.91;5070919;28;20516;-78
2023/04/18 05:03:27;;;;;;;96.03;48.88;;;;;;;13.39;68.29;99189.84;5069625;28;20020;-77
2023/04/18 05:05:53;;;;;;;94.93;46.75;;;;;;;12.90;68.35;99114.94;5082596;28;20060;-78
2023/04/18 05:08:18;;;;;;;78.03;41.20;;;;;;;13.36;68.21;99186.53;5096606;28;20390;-77
2023/04/18 05:10:44;;;;;;;72.85;39.38;;;;;;;12.82;67.91;99107.19;5111810;28;20514;-77
2023/04/18 05:13:10;;;;;;;62.67;33.47;;;;;;;12.98;68.14;99125.34;5094976;28;20062;-77
2023/04/18 05:15:36;;;;;;;56.13;32.80;;;;;;;13.00;68.31;99131.25;5089472;28;20023;-78
2023/04/18 05:18:01;;;;;;;46.00;32.00;;;;;;;12.82;68.38;99099.25;5090978;28;20090;-77
2023/04/18 05:20:27;;;;;;;53.50;35.20;;;;;;;12.75;68.32;99102.91;5090941;28;20028;-78
2023/04/18 05:22:52;;;;;;;55.55;36.33;;;;;;;12.86;68.14;99116.38;5090325;28;20032;-77
2023/04/18 05:25:18;;;;;;;58.55;37.88;;;;;;;13.35;68.05;99195.50;5090384;28;20564;-77
2023/04/18 05:27:44;;;;;;;57.08;38.40;;;;;;;12.88;67.90;99116.16;5091954;28;20393;-78
2023/04/18 05:30:10;;;;;;;54.05;35.22;;;;;;;13.21;67.80;99166.56;5094786;28;20016;-77
2023/04/18 05:32:37;;;;;;;47.13;33.70;;;;;;;13.02;67.50;99129.22;5095335;28;20032;-78
2023/04/18 05:35:07;;;;;;;48.78;36.38;;;;;;;13.44;67.57;99198.00;5093711;28;20031;-77
2023/04/18 05:37:32;;;;;;;54.83;39.28;;;;;;;13.45;67.67;99203.09;5093844;28;20032;-78
2023/04/18 05:39:58;;;;;;;59.35;44.10;;;;;;;13.34;67.60;99193.88;5094641;28;20103;-76
2023/04/18 05:42:24;;;;;;;53.78;39.58;;;;;;;12.83;67.50;99129.19;5092769;28;20042;-77
2023/04/18 05:44:49;;;;;;;52.78;38.20;;;;;;;13.02;67.47;99165.50;5108607;28;20026;-77
2023/04/18 05:47:15;;;;;;;49.15;37.92;;;;;;;12.91;67.86;99153.66;5114917;28;20020;-77
2023/04/18 05:49:40;;;;;;;44.20;33.10;;;;;;;12.87;67.94;99159.56;5105864;28;20032;-77
2023/04/18 05:52:06;;;;;;;40.63;29.83;;;;;;;12.88;68.05;99163.84;5094232;28;20058;-78
2023/04/18 05:54:31;;;;;;;35.83;26.25;;;;;;;12.82;68.09;99162.00;5093982;28;20454;-77
2023/04/18 05:56:57;;;;;;;28.90;21.85;;;;;;;12.63;68.08;99134.44;5093992;28;20024;-76
2023/04/18 05:59:23;;;;;;;31.33;21.90;;;;;;;13.07;68.29;99208.09;5093215;28;20122;-78
2023/04/18 06:01:48;;;;;;;28.30;21.58;;;;;;;12.59;68.25;99131.38;5094211;28;20154;-75
2023/04/18 06:04:14;;;;;;;36.78;21.63;;;;;;;12.57;68.30;99120.19;5093921;28;20020;-78
2023/04/18 06:06:40;;;;;;;29.00;21.27;;;;;;;12.73;68.45;99153.44;5092233;28;20031;-77
2023/04/18 06:09:06;;;;;;;30.90;22.83;;;;;;;13.16;68.41;99225.44;5091316;28;20019;-79
2023/04/18 06:11:34;;;;;;;31.50;23.33;;;;;;;13.09;68.30;99200.78;5086702;28;20471;-75
2023/04/18 06:13:59;;;;;;;31.65;24.98;;;;;;;13.24;68.29;99225.28;5088066;28;20036;-76
2023/04/18 06:16:25;;;;;;;32.38;24.42;;;;;;;13.23;67.74;99202.44;5090698;28;20045;-78
2023/04/18 06:18:50;;;;;;;30.33;24.08;;;;;;;13.07;67.58;99162.25;5089164;28;20032;-75
2023/04/18 06:21:16;;;;;;;34.95;24.15;;;;;;;12.77;67.48;99138.78;5088781;28;20023;-78
2023/04/18 06:23:41;;;;;;;34.90;23.23;;;;;;;13.23;67.66;99191.84;5093299;28;20032;-75
2023/04/18 06:26:08;;;;;;;27.60;19.77;;;;;;;13.18;67.41;99167.78;5091807;28;20177;-76
2023/04/18 06:28:35;;;;;;;27.27;19.38;;;;;;;13.39;67.53;99195.94;5089823;28;20052;-77
2023/04/18 06:31:00;;;;;;;25.20;17.27;;;;;;;13.07;67.20;99131.25;5090792;28;20093;-74
2023/04/18 06:33:25;;;;;;;21.92;15.00;;;;;;;13.32;66.99;99172.06;5091618;28;20474;-78
2023/04/18 06:35:51;;;;;;;21.48;15.88;;;;;;;13.48;66.55;99178.00;5092367;28;20028;-77
2023/04/18 06:38:17;;;;;;;20.52;16.17;;;;;;;12.96;66.53;99105.38;5092186;28;20078;-77
2023/04/18 06:40:42;;;;;;;22.10;15.63;;;;;;;13.66;66.55;99204.69;5091583;28;21805;-77
2023/04/18 06:43:07;;;;;;;19.73;14.68;;;;;;;13.72;66.30;99203.88;5104530;28;20034;-77
2023/04/18 06:45:34;;;;;;;15.02;13.32;;;;;;;13.53;65.87;99167.59;5095089;28;20027;-77
2023/04/18 06:48:02;;;;;;;15.85;13.00;;;;;;;13.77;65.81;99212.03;5092835;28;20032;-77
2023/04/18 06:50:28;;;;;;;17.20;13.02;;;;;;;13.68;65.87;99205.31;5091404;28;20032;-77
2023/04/18 06:52:53;;;;;;;15.52;13.88;;;;;;;13.33;65.49;99139.22;5089634;28;20036;-76
2023/04/18 06:55:19;;;;;;;19.52;14.38;;;;;;;13.57;65.77;99164.31;5088978;28;20020;-76
2023/04/18 06:57:45;;;;;;;20.33;16.15;;;;;;;13.72;65.50;99195.91;5087161;28;20036;-78
2023/04/18 07:00:10;;;;;;;18.38;14.55;;;;;;;13.84;65.22;99212.03;5090838;28;20027;-77
2023/04/18 07:02:37;;;;;;;18.85;13.85;;;;;;;13.83;65.06;99221.00;5088700;28;20032;-76
2023/04/18 07:05:03;;;;;;;16.38;14.75;;;;;;;13.74;65.05;99201.00;5089084;28;20023;-75
2023/04/18 07:07:30;;;;;;;15.52;13.85;;;;;;;13.55;64.89;99174.31;5091972;28;20413;-76
2023/04/18 07:09:55;;;;;;;16.02;14.32;;;;;;;13.46;64.53;99153.50;5091019;28;20039;-76
2023/04/18 07:12:21;;;;;;;16.70;13.57;;;;;;;13.44;64.63;99150.25;5091643;28;20036;-75
2023/04/18 07:14:46;;;;;;;13.65;12.27;;;;;;;13.31;64.56;99116.59;5090227;28;20107;-76
2023/04/18 07:17:11;;;;;;;17.00;13.77;;;;;;;13.62;64.47;99161.03;5090782;28;20040;-76
2023/04/18 07:19:37;;;;;;;18.30;14.30;;;;;;;13.55;64.83;99157.56;5090702;28;20032;-75
2023/04/18 07:22:02;;;;;;;15.02;13.30;;;;;;;13.83;65.03;99211.19;5090800;28;20401;-75
2023/04/18 07:24:28;;;;;;;19.63;14.32;;;;;;;13.45;64.81;99143.94;5090890;28;20024;-76
2023/04/18 07:26:53;;;;;;;16.17;14.30;;;;;;;13.90;64.73;99217.31;5092190;28;20549;-76
2023/04/18 07:29:19;;;;;;;18.48;15.00;;;;;;;13.37;64.81;99123.72;5090894;28;20508;-76
2023/04/18 07:31:45;;;;;;;15.50;13.90;;;;;;;13.58;64.49;99144.72;5092428;28;20036;-76
2023/04/18 07:34:12;;;;;;;20.80;14.52;;;;;;;13.63;64.42;99152.88;5091441;28;20024;-77
2023/04/18 07:36:38;;;;;;;18.67;16.00;;;;;;;14.03;64.22;99205.03;5092449;28;20028;-77
2023/04/18 07:39:03;;;;;;;24.63;17.98;;;;;;;13.99;64.23;99183.41;5090525;28;20023;-77
2023/04/18 07:41:29;;;;;;;26.27;20.55;;;;;;;14.15;63.92;99200.75;5088005;28;20455;-78
2023/04/18 07:43:55;;;;;;;24.13;20.77;;;;;;;13.66;63.64;99117.97;5100820;28;20032;-78
2023/04/18 07:46:20;;;;;;;23.25;19.60;;;;;;;14.32;63.90;99193.94;5100043;28;20054;-77
2023/04/18 07:48:46;;;;;;;20.80;18.70;;;;;;;13.94;63.82;99144.22;5091723;28;20028;-77
2023/04/18 07:51:11;;;;;;;20.23;17.67;;;;;;;14.06;64.10;99178.88;5087576;28;20035;-76
2023/04/18 07:53:36;;;;;;;28.48;25.42;;;;;;;13.85;64.20;99152.63;5086848;28;20531;-78
2023/04/18 07:56:02;;;;;;;24.70;19.40;;;;;;;13.83;64.63;99162.63;5097188;28;20048;-77
2023/04/18 07:58:28;;;;;;;21.05;18.80;;;;;;;14.20;64.40;99220.31;5087669;28;20032;-77
2023/04/18 08:00:53;;;;;;;22.48;20.05;;;;;;;13.81;64.23;99152.22;5088129;28;20027;-78
2023/04/18 08:03:19;;;;;;;23.95;20.92;;;;;;;14.18;64.19;99197.66;5101547;28;20028;-78
2023/04/18 08:05:44;;;;;;;30.30;25.05;;;;;;;14.37;64.16;99218.00;5091585;28;20039;-77
2023/04/18 08:08:11;;;;;;;28.67;25.55;;;;;;;14.47;64.06;99226.38;5094795;28;20040;-77
2023/04/18 08:10:37;;;;;;;26.52;22.00;;;;;;;14.40;63.53;99212.28;5100230;28;20024;-77
2023/04/18 08:13:03;;;;;;;24.17;21.55;;;;;;;14.51;63.49;99222.28;5095051;28;20020;-77
2023/04/18 08:15:31;;;;;;;25.35;22.75;;;;;;;14.44;63.32;99210.88;5091145;28;20110;-77
2023/04/18 08:17:57;;;;;;;26.77;23.05;;;;;;;14.54;63.49;99221.84;5089721;28;20028;-77
2023/04/18 08:20:22;;;;;;;26.55;23.15;;;;;;;14.58;62.96;99219.59;5088994;28;20028;-77
2023/04/18 08:22:48;;;;;;;25.20;22.13;;;;;;;14.37;62.95;99186.16;5084259;28;20020;-77
2023/04/18 08:25:13;;;;;;;24.92;21.45;;;;;;;14.15;62.99;99163.56;5084088;28;20065;-78
2023/04/18 08:27:39;;;;;;;24.23;21.63;;;;;;;14.11;62.89;99152.53;5087466;28;20262;-77
2023/04/18 08:30:05;;;;;;;24.40;21.35;;;;;;;14.61;62.57;99233.28;5088582;28;20040;-78
2023/04/18 08:32:31;;;;;;;25.42;21.42;;;;;;;14.57;62.65;99234.72;5089758;28;20028;-77
2023/04/18 08:34:57;;;;;;;24.52;20.65;;;;;;;14.57;62.86;99239.22;5090550;28;20089;-77
2023/04/18 08:37:22;;;;;;;28.10;24.52;;;;;;;14.23;62.55;99187.22;5090811;28;20035;-77
2023/04/18 08:39:48;;;;;;;26.20;22.23;;;;;;;14.06;62.58;99148.88;5090861;28;20028;-77
2023/04/18 08:42:20;;;;;;;26.92;22.00;;;;;;;14.23;62.59;99171.28;5091018;28;20099;-77
2023/04/18 08:44:46;;;;;;;23.23;20.35;;;;;;;14.66;62.64;99237.13;5085943;28;20435;-77
2023/04/18 08:47:11;;;;;;;25.25;20.98;;;;;;;14.45;62.30;99212.50;5088033;28;20008;-77
2023/04/18 08:49:37;;;;;;;27.27;22.20;;;;;;;14.73;62.08;99243.22;5087909;28;20514;-77
2023/04/18 08:52:09;;;;;;;25.65;22.95;;;;;;;14.46;62.15;99211.47;5090598;28;20024;-77
2023/04/18 08:54:37;;;;;;;25.05;20.77;;;;;;;14.69;62.36;99244.69;5087996;28;20032;-77
2023/04/18 08:57:04;;;;;;;24.15;21.55;;;;;;;14.54;61.91;99215.72;5086860;28;20024;-77
2023/04/18 08:59:31;;;;;;;21.67;19.42;;;;;;;14.25;62.26;99171.91;5086673;28;20040;-76
2023/04/18 09:01:57;;;;;;;22.58;19.10;;;;;;;14.27;61.95;99169.84;5084362;28;20024;-77
2023/04/18 09:04:35;;;;;;;27.27;23.50;;;;;;;14.74;62.18;99239.53;5094419;28;20075;-77
2023/04/18 09:07:07;;;;;;;25.08;19.75;;;;;;;14.35;62.06;99169.59;5093466;28;20077;-76
2023/04/18 09:09:50;;;;;;;19.60;17.52;;;;;;;14.82;61.88;99242.78;5092511;28;20036;-77
2023/04/18 09:12:24;;;;;;;18.95;16.73;;;;;;;14.68;61.75;99225.25;5088140;28;20032;-78
2023/04/18 09:14:53;;;;;;;21.55;19.10;;;;;;;14.25;61.86;99164.75;5082243;28;20032;-78
2023/04/18 09:17:49;;;;;;;15.15;13.65;;;;;;;14.67;61.50;99238.75;5090816;28;20020;-77
2023/04/18 09:20:36;;;;;;;18.20;16.30;;;;;;;14.69;61.44;99240.19;5089257;28;20036;-77
2023/04/18 09:23:09;;;;;;;21.17;18.42;;;;;;;14.19;61.29;99146.19;5085465;28;20528;-78
2023/04/18 09:25:39;;;;;;;18.35;16.45;;;;;;;14.79;61.60;99245.84;5085460;28;20059;-77
2023/04/18 09:28:19;;;;;;;23.10;20.63;;;;;;;14.85;61.36;99249.50;5089303;28;20512;-77
2023/04/18 09:30:45;;;;;;;20.30;17.83;;;;;;;14.56;61.12;99208.34;5088728;28;20051;-77
2023/04/18 09:33:11;;;;;;;21.08;17.65;;;;;;;14.44;61.40;99194.13;5091377;28;20120;-77
2023/04/18 09:35:37;;;;;;;25.10;21.17;;;;;;;14.77;61.25;99231.16;5092132;28;20089;-78
2023/04/18 09:38:04;;;;;;;24.75;21.67;;;;;;;14.55;61.43;99194.25;5108760;28;20051;-77
2023/04/18 09:40:31;;;;;;;28.98;23.75;;;;;;;14.94;61.59;99243.75;5093095;28;20493;-77
2023/04/18 09:42:56;;;;;;;22.20;19.80;;;;;;;14.77;61.28;99200.06;5093362;28;20042;-77
2023/04/18 09:45:23;;;;;;;24.30;21.42;;;;;;;15.21;61.30;99238.25;5094126;28;20023;-78
2023/04/18 09:47:48;;;;;;;21.13;18.92;;;;;;;15.24;60.93;99240.50;5089103;28;20020;-78
2023/04/18 09:50:16;;;;;;;23.67;20.23;;;;;;;15.10;60.87;99229.13;5092402;28;20023;-76
2023/04/18 09:52:43;;;;;;;20.80;18.60;;;;;;;15.25;60.58;99239.47;5090287;28;20040;-77
2023/04/18 09:55:11;;;;;;;22.42;19.15;;;;;;;15.12;59.95;99221.75;5095165;27;20028;-78
2023/04/18 09:57:40;;;;;;;22.05;19.45;;;;;;;15.23;60.64;99217.59;5082996;28;20496;-77
2023/04/18 10:00:19;;;;;;;22.45;20.15;;;;;;;15.49;60.58;99241.31;5087654;28;20055;-77
2023/04/18 10:02:57;;;;;;;26.23;22.58;;;;;;;15.65;59.87;99240.03;5082222;28;20028;-77
2023/04/18 10:05:30;;;;;;;23.92;20.52;;;;;;;15.33;59.55;99182.53;5078969;28;20034;-78
2023/04/18 10:07:56;;;;;;;23.15;19.70;;;;;;;15.78;59.71;99255.88;5084980;28;20028;-77
2023/04/18 10:10:22;;;;;;;21.27;18.98;;;;;;;15.40;59.56;99189.41;5107160;28;20471;-77
2023/04/18 10:12:50;;;;;;;23.60;19.67;;;;;;;15.97;59.14;99243.41;5082040;28;20031;-76
2023/04/18 10:15:16;;;;;;;22.02;18.70;;;;;;;15.97;58.78;99237.28;5088460;28;20039;-76
2023/04/18 10:17:58;;;;;;;20.75;18.55;;;;;;;16.03;58.80;99237.19;5083315;28;20058;-75
2023/04/18 10:20:28;;;;;;;22.70;19.48;;;;;;;15.96;58.91;99203.69;5077672;28;20035;-77
2023/04/18 10:22:55;;;;;;;22.90;19.70;;;;;;;16.25;58.25;99232.25;5076463;28;20492;-77
2023/04/18 10:25:32;;;;;;;25.27;22.42;;;;;;;16.33;57.93;99223.97;5084307;28;20091;-77
2023/04/18 10:27:59;;;;;;;21.35;19.08;;;;;;;16.26;58.08;99207.25;5083523;28;20055;-77
2023/04/18 10:30:38;;;;;;;22.13;19.75;;;;;;;16.33;57.81;99223.97;5086062;28;20060;-77
2023/04/18 10:33:29;;;;;;;23.42;19.70;;;;;;;16.31;58.15;99219.88;5081046;28;20093;-78
2023/04/18 10:35:56;;;;;;;25.08;21.10;;;;;;;15.84;58.28;99159.16;5081588;28;20546;-78
2023/04/18 10:38:23;;;;;;;19.90;17.70;;;;;;;16.12;58.01;99203.09;5091453;28;20048;-77
2023/04/18 10:40:48;;;;;;;18.60;16.70;;;;;;;15.84;58.19;99167.16;5084707;28;20032;-75
2023/04/18 10:43:13;;;;;;;16.38;14.70;;;;;;;16.11;58.29;99215.59;5082563;28;20028;-77
2023/04/18 10:45:39;;;;;;;18.10;16.20;;;;;;;16.15;58.09;99211.47;5085185;28;20023;-78
2023/04/18 10:48:24;;;;;;;15.80;14.25;;;;;;;16.09;57.70;99212.34;5091074;28;20031;-77
2023/04/18 10:51:13;;;;;;;16.88;13.77;;;;;;;16.08;58.19;99213.38;5088708;28;20420;-75
2023/04/18 10:53:41;;;;;;;14.40;12.90;;;;;;;16.03;58.26;99201.78;5083900;28;20028;-76
2023/04/18 10:56:11;;;;;;;16.05;12.93;;;;;;;15.87;58.07;99150.72;5090606;28;20032;-75
2023/04/18 10:58:40;;;;;;;13.82;12.52;;;;;;;15.80;57.85;99139.34;5088659;28;20555;-75
2023/04/18 11:01:08;;;;;;;15.20;13.38;;;;;;;15.52;58.31;99104.38;5079279;28;20031;-77
2023/04/18 11:03:34;;;;;;;14.15;12.50;;;;;;;15.97;58.45;99179.50;5076690;28;20408;-77
2023/04/18 11:06:02;;;;;;;15.30;12.85;;;;;;;16.08;58.52;99196.59;5078024;28;20032;-75
2023/04/18 11:08:28;;;;;;;16.50;13.05;;;;;;;15.67;58.28;99112.88;5088895;28;20435;-76
2023/04/18 11:10:58;;;;;;;16.17;13.07;;;;;;;16.20;58.58;99192.97;5092663;28;20024;-77
2023/04/18 11:13:23;;;;;;;15.30;13.60;;;;;;;16.03;58.43;99164.50;5086546;28;20028;-77
2023/04/18 11:15:49;;;;;;;13.25;11.75;;;;;;;16.00;58.45;99154.28;5081861;28;20034;-76